createdAt,value
2019-05-26T00:01:04.031Z,15.11
2019-05-26T00:03:33.674Z,15.20
2019-05-26T00:06:03.259Z,15.09
2019-05-26T00:08:32.522Z,14.96
2019-05-26T00:11:01.788Z,15.00
2019-05-26T00:13:31.044Z,15.05
2019-05-26T00:16:00.559Z,15.02
2019-05-26T00:18:33.264Z,14.91
2019-05-26T00:21:01.201Z,14.94
2019-05-26T00:24:09.842Z,14.98
2019-05-26T00:26:39.430Z,14.89
2019-05-26T00:29:09.144Z,14.81
2019-05-26T00:31:50.929Z,14.83
2019-05-26T00:34:09.995Z,14.88
2019-05-26T00:36:39.303Z,14.78
2019-05-26T00:39:09.000Z,14.48
2019-05-26T00:41:38.212Z,14.41
2019-05-26T00:44:07.465Z,14.44
2019-05-26T00:46:36.776Z,14.38
2019-05-26T00:49:45.702Z,14.47
2019-05-26T00:52:14.952Z,14.47
2019-05-26T00:54:44.533Z,14.61
2019-05-26T00:57:13.723Z,14.72
2019-05-26T01:00:01.975Z,14.52
2019-05-26T01:02:31.479Z,14.45
2019-05-26T01:05:00.730Z,14.38
2019-05-26T01:07:30.919Z,14.44
2019-05-26T01:10:00.545Z,14.38
2019-05-26T01:12:30.119Z,14.47
2019-05-26T01:14:59.396Z,14.41
2019-05-26T01:17:29.023Z,14.46
2019-05-26T01:19:58.627Z,14.36
2019-05-26T01:22:27.979Z,14.39
2019-05-26T01:24:57.477Z,14.52
2019-05-26T01:27:26.743Z,14.66
2019-05-26T01:29:56.341Z,14.68
2019-05-26T01:32:25.588Z,14.72
2019-05-26T01:34:54.779Z,14.71
2019-05-26T01:37:24.480Z,14.67
2019-05-26T01:39:53.990Z,14.70
2019-05-26T01:42:23.301Z,14.75
2019-05-26T01:44:52.511Z,14.76
2019-05-26T01:47:22.056Z,14.53
2019-05-26T01:49:51.275Z,14.51
2019-05-26T01:52:21.059Z,14.50
2019-05-26T01:54:50.573Z,14.38
2019-05-26T01:57:19.941Z,14.38
2019-05-26T01:59:49.136Z,14.39
2019-05-26T02:02:18.672Z,14.40
2019-05-26T02:04:48.229Z,14.51
2019-05-26T02:07:17.473Z,14.35
2019-05-26T02:09:46.673Z,14.48
2019-05-26T02:12:16.284Z,14.55
2019-05-26T02:14:45.485Z,14.43
2019-05-26T02:17:14.748Z,14.41
2019-05-26T02:19:43.945Z,14.49
2019-05-26T02:22:13.140Z,14.33
2019-05-26T02:24:42.527Z,14.33
2019-05-26T02:27:11.725Z,14.25
2019-05-26T02:29:40.980Z,14.18
2019-05-26T02:32:10.178Z,14.24
2019-05-26T02:34:39.432Z,14.14
2019-05-26T02:37:08.629Z,14.04
2019-05-26T02:39:37.854Z,13.95
2019-05-26T02:42:07.375Z,14.11
2019-05-26T02:44:36.614Z,14.11
2019-05-26T02:47:06.275Z,14.22
2019-05-26T02:49:35.525Z,14.24
2019-05-26T02:52:04.813Z,14.24
2019-05-26T02:54:34.391Z,14.11
2019-05-26T02:57:03.949Z,14.03
2019-05-26T02:59:33.188Z,13.90
2019-05-26T03:02:04.501Z,14.07
2019-05-26T03:04:33.342Z,14.16
2019-05-26T03:07:41.920Z,14.36
2019-05-26T03:10:11.428Z,14.41
2019-05-26T03:13:21.049Z,14.49
2019-05-26T03:15:50.239Z,14.40
2019-05-26T03:18:19.936Z,14.47
2019-05-26T03:20:49.432Z,14.34
2019-05-26T03:23:18.687Z,14.47
2019-05-26T03:25:47.915Z,14.46
2019-05-26T03:28:17.125Z,14.39
2019-05-26T03:30:46.746Z,14.38
2019-05-26T03:33:16.219Z,14.46
2019-05-26T03:35:45.851Z,14.44
2019-05-26T03:38:15.417Z,14.60
2019-05-26T03:40:44.664Z,14.62
2019-05-26T03:43:14.264Z,14.63
2019-05-26T03:46:21.657Z,14.53
2019-05-26T03:49:30.729Z,14.54
2019-05-26T03:52:00.334Z,14.64
2019-05-26T03:54:29.878Z,14.64
2019-05-26T03:56:59.149Z,14.56
2019-05-26T03:59:28.684Z,14.51
2019-05-26T04:01:58.203Z,14.47
2019-05-26T04:04:28.922Z,14.46
2019-05-26T04:06:58.172Z,14.57
2019-05-26T04:09:27.725Z,14.41
2019-05-26T04:11:57.333Z,14.29
2019-05-26T04:14:26.551Z,14.37
2019-05-26T04:16:58.801Z,14.41
2019-05-26T04:19:28.204Z,14.41
2019-05-26T04:21:57.807Z,14.49
2019-05-26T04:24:27.022Z,14.51
2019-05-26T04:26:56.281Z,14.50
2019-05-26T04:29:25.542Z,14.45
2019-05-26T04:31:54.810Z,14.35
2019-05-26T04:34:24.406Z,14.25
2019-05-26T04:36:53.657Z,14.30
2019-05-26T04:39:23.266Z,14.40
2019-05-26T04:41:52.537Z,14.45
2019-05-26T04:44:22.193Z,14.46
2019-05-26T04:46:51.731Z,14.46
2019-05-26T04:49:21.025Z,14.41
2019-05-26T04:51:50.206Z,14.40
2019-05-26T04:54:19.842Z,14.52
2019-05-26T04:56:49.039Z,14.55
2019-05-26T04:59:18.285Z,14.51
2019-05-26T05:01:47.473Z,14.51
2019-05-26T05:04:16.713Z,14.58
2019-05-26T05:06:45.961Z,14.60
2019-05-26T05:09:15.653Z,14.69
2019-05-26T05:11:45.237Z,14.68
2019-05-26T05:14:14.675Z,14.75
2019-05-26T05:16:43.882Z,14.75
2019-05-26T05:19:13.372Z,14.74
2019-05-26T05:21:42.961Z,14.76
2019-05-26T05:24:12.586Z,14.75
2019-05-26T05:26:41.856Z,14.98
2019-05-26T05:29:11.066Z,15.01
2019-05-26T05:31:40.315Z,15.04
2019-05-26T05:34:09.528Z,15.11
2019-05-26T05:36:39.160Z,15.13
2019-05-26T05:42:17.636Z,15.12
2019-05-26T05:44:46.839Z,15.20
2019-05-26T05:47:16.110Z,15.15
2019-05-26T05:50:04.974Z,15.21
2019-05-26T05:52:34.550Z,15.24
2019-05-26T05:58:12.689Z,15.40
2019-05-26T06:03:37.806Z,15.20
2019-05-26T06:06:07.086Z,15.27
2019-05-26T06:08:36.284Z,15.29
2019-05-26T06:11:15.918Z,15.33
2019-05-26T06:13:36.501Z,15.19
2019-05-26T06:16:06.152Z,15.36
2019-05-26T06:18:35.764Z,15.54
2019-05-26T06:21:05.010Z,15.50
2019-05-26T06:23:36.761Z,15.62
2019-05-26T06:26:05.452Z,15.74
2019-05-26T06:31:10.150Z,15.92
2019-05-26T06:33:39.403Z,15.87
2019-05-26T06:36:08.943Z,15.80
2019-05-26T06:38:38.560Z,15.92
2019-05-26T06:41:08.060Z,15.97
2019-05-26T06:43:37.301Z,16.14
2019-05-26T06:46:06.864Z,16.14
2019-05-26T06:48:36.474Z,16.14
2019-05-26T06:51:05.683Z,16.47
2019-05-26T06:53:37.249Z,16.69
2019-05-26T06:56:05.873Z,16.68
2019-05-26T06:58:35.547Z,16.78
2019-05-26T07:01:04.763Z,17.01
2019-05-26T07:03:34.163Z,17.17
2019-05-26T07:06:03.727Z,17.12
2019-05-26T07:08:33.249Z,17.03
2019-05-26T07:11:02.831Z,17.07
2019-05-26T07:13:32.089Z,16.63
2019-05-26T07:16:01.374Z,16.83
2019-05-26T07:18:31.249Z,16.87
2019-05-26T07:21:00.522Z,16.93
2019-05-26T07:23:29.732Z,17.00
2019-05-26T07:25:59.051Z,16.90
2019-05-26T07:28:28.612Z,16.76
2019-05-26T07:30:58.516Z,16.88
2019-05-26T07:33:28.232Z,16.96
2019-05-26T07:35:57.785Z,17.07
2019-05-26T07:38:27.389Z,17.19
2019-05-26T07:40:56.654Z,17.22
2019-05-26T07:43:28.199Z,17.26
2019-05-26T07:45:57.576Z,17.17
2019-05-26T07:48:27.145Z,17.26
2019-05-26T07:50:56.398Z,17.32
2019-05-26T07:53:26.056Z,17.46
2019-05-26T07:55:55.430Z,17.52
2019-05-26T08:00:59.559Z,17.66
2019-05-26T08:03:28.887Z,17.74
2019-05-26T08:05:58.386Z,17.73
2019-05-26T08:08:27.590Z,17.75
2019-05-26T08:10:57.499Z,17.81
2019-05-26T08:13:27.413Z,17.89
2019-05-26T08:15:57.385Z,17.90
2019-05-26T08:18:26.603Z,17.96
2019-05-26T08:20:55.998Z,17.94
2019-05-26T08:23:25.200Z,17.94
2019-05-26T08:25:55.119Z,18.05
2019-05-26T08:28:24.287Z,17.99
2019-05-26T08:30:53.877Z,18.00
2019-05-26T08:33:23.462Z,18.22
2019-05-26T08:36:11.799Z,18.35
2019-05-26T08:39:00.074Z,18.43
2019-05-26T08:41:29.321Z,18.43
2019-05-26T08:43:58.522Z,18.58
2019-05-26T08:46:27.774Z,18.69
2019-05-26T08:48:57.502Z,18.74
2019-05-26T08:51:45.828Z,18.64
2019-05-26T08:54:15.372Z,18.57
2019-05-26T08:56:44.615Z,18.55
2019-05-26T08:59:14.138Z,18.60
2019-05-26T09:02:02.464Z,18.71
2019-05-26T09:04:31.654Z,18.81
2019-05-26T09:07:00.898Z,18.92
2019-05-26T09:09:30.373Z,19.09
2019-05-26T09:12:00.185Z,19.13
2019-05-26T09:14:48.472Z,19.02
2019-05-26T09:17:18.294Z,19.02
2019-05-26T09:19:48.404Z,19.08
2019-05-26T09:22:17.954Z,18.92
2019-05-26T09:24:47.279Z,19.05
2019-05-26T09:27:24.703Z,19.02
2019-05-26T09:29:53.915Z,19.19
2019-05-26T09:32:23.164Z,19.30
2019-05-26T09:34:53.251Z,19.29
2019-05-26T09:37:22.907Z,19.37
2019-05-26T09:39:52.125Z,19.71
2019-05-26T09:42:22.482Z,19.97
2019-05-26T09:44:52.587Z,19.85
2019-05-26T09:47:21.891Z,19.87
2019-05-26T09:49:51.715Z,20.12
2019-05-26T09:52:21.428Z,20.34
2019-05-26T09:54:51.022Z,20.21
2019-05-26T09:57:20.340Z,20.28
2019-05-26T09:59:49.560Z,20.41
2019-05-26T10:02:18.760Z,20.43
2019-05-26T10:04:48.339Z,20.56
2019-05-26T10:07:18.258Z,20.77
2019-05-26T10:09:47.509Z,20.68
2019-05-26T10:12:17.161Z,20.28
2019-05-26T10:14:47.815Z,20.25
2019-05-26T10:17:17.849Z,20.49
2019-05-26T10:19:47.100Z,20.74
2019-05-26T10:22:16.608Z,20.60
2019-05-26T10:24:45.848Z,20.71
2019-05-26T10:27:34.264Z,20.61
2019-05-26T10:30:03.572Z,20.80
2019-05-26T10:32:33.123Z,20.98
2019-05-26T10:35:02.319Z,21.11
2019-05-26T10:37:31.867Z,21.15
2019-05-26T10:40:01.069Z,20.75
2019-05-26T10:42:30.671Z,20.79
2019-05-26T10:44:59.876Z,20.71
2019-05-26T10:47:29.120Z,20.94
2019-05-26T10:49:58.363Z,21.06
2019-05-26T10:52:27.632Z,21.19
2019-05-26T10:54:57.176Z,21.21
2019-05-26T10:57:26.809Z,21.22
2019-05-26T11:00:15.072Z,21.20
2019-05-26T11:02:44.629Z,21.26
2019-05-26T11:05:53.476Z,21.27
2019-05-26T11:08:23.369Z,21.23
2019-05-26T11:10:52.588Z,21.01
2019-05-26T11:13:22.096Z,20.88
2019-05-26T11:15:51.335Z,20.96
2019-05-26T11:18:20.605Z,21.11
2019-05-26T11:20:50.286Z,21.21
2019-05-26T11:23:19.485Z,21.43
2019-05-26T11:25:49.443Z,21.67
2019-05-26T11:28:18.633Z,21.87
2019-05-26T11:30:47.867Z,21.94
2019-05-26T11:33:17.111Z,21.83
2019-05-26T11:35:46.590Z,21.79
2019-05-26T11:38:16.282Z,21.69
2019-05-26T11:40:45.557Z,21.79
2019-05-26T11:43:17.201Z,21.76
2019-05-26T11:45:45.718Z,21.69
2019-05-26T11:48:14.912Z,21.68
2019-05-26T11:50:44.172Z,21.68
2019-05-26T11:53:13.801Z,21.82
2019-05-26T11:55:43.365Z,21.75
2019-05-26T11:58:12.607Z,21.83
2019-05-26T12:00:41.804Z,22.05
2019-05-26T12:03:11.347Z,22.12
2019-05-26T12:05:40.530Z,22.24
2019-05-26T12:08:10.358Z,22.20
2019-05-26T12:10:39.903Z,22.30
2019-05-26T12:13:09.231Z,22.29
2019-05-26T12:15:38.684Z,22.18
2019-05-26T12:18:08.381Z,22.25
2019-05-26T12:20:56.649Z,22.32
2019-05-26T12:23:26.235Z,22.25
2019-05-26T12:25:56.048Z,22.45
2019-05-26T12:28:25.682Z,22.72
2019-05-26T12:30:54.867Z,22.94
2019-05-26T12:33:24.567Z,22.92
2019-05-26T12:35:53.771Z,22.85
2019-05-26T12:38:23.007Z,22.93
2019-05-26T12:40:52.200Z,22.92
2019-05-26T12:43:21.808Z,22.75
2019-05-26T12:45:51.341Z,22.81
2019-05-26T12:48:20.584Z,22.83
2019-05-26T12:50:49.783Z,22.61
2019-05-26T12:53:19.036Z,22.71
2019-05-26T12:55:48.567Z,22.72
2019-05-26T12:58:17.808Z,22.81
2019-05-26T13:00:49.841Z,22.57
2019-05-26T13:03:17.979Z,22.43
2019-05-26T13:05:47.512Z,22.49
2019-05-26T13:08:16.753Z,22.64
2019-05-26T13:10:45.941Z,22.92
2019-05-26T13:13:15.615Z,23.28
2019-05-26T13:15:44.817Z,23.68
2019-05-26T13:18:14.068Z,24.02
2019-05-26T13:20:43.536Z,24.05
2019-05-26T13:23:12.731Z,24.05
2019-05-26T13:25:42.429Z,23.77
2019-05-26T13:28:11.657Z,23.77
2019-05-26T13:30:40.922Z,23.39
2019-05-26T13:33:10.122Z,23.29
2019-05-26T13:35:39.448Z,23.39
2019-05-26T13:38:48.336Z,23.27
2019-05-26T13:41:17.603Z,23.45
2019-05-26T13:43:47.177Z,23.30
2019-05-26T13:46:16.430Z,23.40
2019-05-26T13:51:34.207Z,23.40
2019-05-26T13:54:03.396Z,23.25
2019-05-26T13:56:32.661Z,23.04
2019-05-26T13:59:01.857Z,23.21
2019-05-26T14:01:31.105Z,23.18
2019-05-26T14:04:00.294Z,23.37
2019-05-26T14:06:29.557Z,23.70
2019-05-26T14:09:02.063Z,24.04
2019-05-26T14:11:30.076Z,23.95
2019-05-26T14:13:59.345Z,23.67
2019-05-26T14:17:07.983Z,23.42
2019-05-26T14:20:16.560Z,23.67
2019-05-26T14:22:45.799Z,23.74
2019-05-26T14:25:15.770Z,23.79
2019-05-26T14:27:45.998Z,23.70
2019-05-26T14:33:24.647Z,23.11
2019-05-26T14:35:53.883Z,23.14
2019-05-26T14:38:23.134Z,23.11
2019-05-26T14:40:52.653Z,23.27
2019-05-26T14:43:22.254Z,23.12
2019-05-26T14:46:10.379Z,23.13
2019-05-26T14:48:39.641Z,23.09
2019-05-26T14:51:09.242Z,23.70
2019-05-26T14:53:40.305Z,24.08
2019-05-26T14:56:09.894Z,24.34
2019-05-26T14:58:39.141Z,24.82
2019-05-26T15:01:08.500Z,24.47
2019-05-26T15:03:37.689Z,24.33
2019-05-26T15:06:06.943Z,24.09
2019-05-26T15:08:36.461Z,24.03
2019-05-26T15:11:06.066Z,24.60
2019-05-26T15:13:35.313Z,24.95
2019-05-26T15:16:09.953Z,25.00
2019-05-26T15:18:36.246Z,24.80
2019-05-26T15:21:05.640Z,25.22
2019-05-26T15:23:35.223Z,25.22
2019-05-26T15:26:05.559Z,25.07
2019-05-26T15:28:36.154Z,25.32
2019-05-26T15:31:05.439Z,25.15
2019-05-26T15:33:34.638Z,25.60
2019-05-26T15:36:03.849Z,26.30
2019-05-26T15:38:42.573Z,26.59
2019-05-26T15:41:04.380Z,26.01
2019-05-26T15:43:33.622Z,25.67
2019-05-26T15:46:03.122Z,26.00
2019-05-26T15:48:32.537Z,26.19
2019-05-26T15:51:01.728Z,26.43
2019-05-26T15:53:30.988Z,26.71
2019-05-26T15:56:00.189Z,26.40
2019-05-26T16:01:23.939Z,26.46
2019-05-26T16:03:53.823Z,26.52
2019-05-26T16:06:23.012Z,26.42
2019-05-26T16:08:52.207Z,26.54
2019-05-26T16:11:21.835Z,26.93
2019-05-26T16:13:51.114Z,27.38
2019-05-26T16:16:20.426Z,28.18
2019-05-26T16:21:37.919Z,32.63
2019-05-26T16:24:07.482Z,33.49
2019-05-26T16:26:38.098Z,34.84
2019-05-26T16:29:07.296Z,36.06
2019-05-26T16:31:36.953Z,36.56
2019-05-26T16:34:06.519Z,37.31
2019-05-26T16:36:36.538Z,38.07
2019-05-26T16:39:46.703Z,39.01
2019-05-26T16:42:16.343Z,37.50
2019-05-26T16:44:45.874Z,36.31
2019-05-26T16:47:15.077Z,36.59
2019-05-26T16:49:44.318Z,36.83
2019-05-26T16:52:13.961Z,36.78
2019-05-26T16:54:43.213Z,36.02
2019-05-26T16:57:12.714Z,36.36
2019-05-26T17:00:00.964Z,36.70
2019-05-26T17:02:30.465Z,36.57
2019-05-26T17:04:59.729Z,33.97
2019-05-26T17:07:28.936Z,36.03
2019-05-26T17:09:58.568Z,36.57
2019-05-26T17:12:27.822Z,37.41
2019-05-26T17:14:57.382Z,38.40
2019-05-26T17:17:26.958Z,38.74
2019-05-26T17:19:56.626Z,37.77
2019-05-26T17:22:44.802Z,35.46
2019-05-26T17:25:14.333Z,31.25
2019-05-26T17:27:43.562Z,28.86
2019-05-26T17:30:52.191Z,26.90
2019-05-26T17:33:21.375Z,25.72
2019-05-26T17:35:50.960Z,25.07
2019-05-26T17:38:20.289Z,24.81
2019-05-26T17:40:50.279Z,24.64
2019-05-26T17:43:19.476Z,24.37
2019-05-26T17:45:48.725Z,24.16
2019-05-26T17:48:17.959Z,24.05
2019-05-26T17:50:47.279Z,23.97
2019-05-26T17:53:16.468Z,23.79
2019-05-26T17:55:45.774Z,23.68
2019-05-26T17:58:14.970Z,23.58
2019-05-26T18:00:44.219Z,23.52
2019-05-26T18:03:13.705Z,23.30
2019-05-26T18:05:42.915Z,23.26
2019-05-26T18:08:12.157Z,23.17
2019-05-26T18:10:41.667Z,22.98
2019-05-26T18:13:10.957Z,22.83
2019-05-26T18:15:40.144Z,22.82
2019-05-26T18:18:10.117Z,22.63
2019-05-26T18:20:39.324Z,22.52
2019-05-26T18:23:08.568Z,22.41
2019-05-26T18:28:26.734Z,22.11
2019-05-26T18:30:56.699Z,22.04
2019-05-26T18:33:26.005Z,21.97
2019-05-26T18:35:55.565Z,21.92
2019-05-26T18:38:24.861Z,21.70
2019-05-26T18:40:54.053Z,21.58
2019-05-26T18:43:23.322Z,21.60
2019-05-26T18:45:52.860Z,21.59
2019-05-26T18:48:22.776Z,21.57
2019-05-26T18:50:52.383Z,21.54
2019-05-26T18:53:21.572Z,21.53
2019-05-26T18:55:50.839Z,21.47
2019-05-26T18:58:20.341Z,21.43
2019-05-26T19:00:49.870Z,21.32
2019-05-26T19:03:20.592Z,21.26
2019-05-26T19:05:49.838Z,21.24
2019-05-26T19:08:19.385Z,21.15
2019-05-26T19:10:48.935Z,21.04
2019-05-26T19:13:18.544Z,20.96
2019-05-26T19:15:47.942Z,20.92
2019-05-26T19:18:20.185Z,20.87
2019-05-26T19:20:48.495Z,20.76
2019-05-26T19:23:18.503Z,20.77
2019-05-26T19:26:27.158Z,20.65
2019-05-26T19:28:56.735Z,20.68
2019-05-26T19:31:26.025Z,20.62
2019-05-26T19:33:55.242Z,20.63
2019-05-26T19:36:44.174Z,20.63
2019-05-26T19:39:13.375Z,20.63
2019-05-26T19:41:42.645Z,20.68
2019-05-26T19:44:12.200Z,20.65
2019-05-26T19:46:41.815Z,20.62
2019-05-26T19:49:11.318Z,20.47
2019-05-26T19:51:40.948Z,20.47
2019-05-26T19:54:10.147Z,20.51
2019-05-26T19:56:39.403Z,20.49
2019-05-26T19:59:08.915Z,20.45
2019-05-26T20:01:38.628Z,20.38
2019-05-26T20:04:10.439Z,20.33
2019-05-26T20:06:39.699Z,20.27
2019-05-26T20:09:48.968Z,20.17
2019-05-26T20:12:18.788Z,20.14
2019-05-26T20:14:48.271Z,20.10
2019-05-26T20:17:17.856Z,20.10
2019-05-26T20:19:47.353Z,20.09
2019-05-26T20:22:16.851Z,20.15
2019-05-26T20:24:46.250Z,20.14
2019-05-26T20:27:15.437Z,20.12
2019-05-26T20:29:45.072Z,20.10
2019-05-26T20:32:14.336Z,20.04
2019-05-26T20:34:43.874Z,20.00
2019-05-26T20:37:13.094Z,20.04
2019-05-26T20:39:42.778Z,20.04
2019-05-26T20:42:12.001Z,20.04
2019-05-26T20:44:41.276Z,20.02
2019-05-26T20:47:10.526Z,19.91
2019-05-26T20:49:45.287Z,19.90
2019-05-26T20:52:11.241Z,19.89
2019-05-26T20:54:40.726Z,19.85
2019-05-26T20:57:09.976Z,19.89
2019-05-26T20:59:39.630Z,19.82
2019-05-26T21:02:09.915Z,19.82
2019-05-26T21:04:39.119Z,19.85
2019-05-26T21:07:08.357Z,19.78
2019-05-26T21:09:37.854Z,19.70
2019-05-26T21:12:26.314Z,19.66
2019-05-26T21:14:55.913Z,19.53
2019-05-26T21:17:25.151Z,19.56
2019-05-26T21:19:54.895Z,19.50
2019-05-26T21:24:59.655Z,19.46
2019-05-26T21:27:28.903Z,19.49
2019-05-26T21:29:58.104Z,19.52
2019-05-26T21:32:31.198Z,19.47
2019-05-26T21:34:58.603Z,19.43
2019-05-26T21:37:28.215Z,19.42
2019-05-26T21:39:57.402Z,19.37
2019-05-26T21:42:26.651Z,19.34
2019-05-26T21:44:55.837Z,19.27
2019-05-26T21:47:25.723Z,19.22
2019-05-26T21:49:54.915Z,19.18
2019-05-26T21:52:24.182Z,19.20
2019-05-26T21:54:53.723Z,19.14
2019-05-26T21:57:22.915Z,19.13
2019-05-26T21:59:52.446Z,19.14
2019-05-26T22:02:21.635Z,19.06
2019-05-26T22:04:51.216Z,19.01
2019-05-26T22:07:21.800Z,18.98
2019-05-26T22:09:51.367Z,18.85
2019-05-26T22:12:20.972Z,18.83
2019-05-26T22:14:50.269Z,18.86
2019-05-26T22:17:19.460Z,18.87
2019-05-26T22:19:48.700Z,18.72
2019-05-26T22:22:18.176Z,18.62
2019-05-26T22:24:47.786Z,18.56
2019-05-26T22:27:16.998Z,18.45
2019-05-26T22:29:46.225Z,18.38
2019-05-26T22:32:15.544Z,18.34
2019-05-26T22:34:44.802Z,18.32
2019-05-26T22:37:13.987Z,18.26
2019-05-26T22:39:43.604Z,18.21
2019-05-26T22:42:13.500Z,18.18
2019-05-26T22:44:42.759Z,18.11
2019-05-26T22:47:11.952Z,18.14
2019-05-26T22:52:17.932Z,18.09
2019-05-26T22:54:48.175Z,18.01
2019-05-26T22:57:17.345Z,18.01
2019-05-26T22:59:46.576Z,18.01
2019-05-26T23:02:15.904Z,17.93
2019-05-26T23:05:04.315Z,17.86
2019-05-26T23:07:52.591Z,17.78
2019-05-26T23:10:21.848Z,17.78
2019-05-26T23:12:51.044Z,17.73
2019-05-26T23:15:20.791Z,17.67
2019-05-26T23:17:49.980Z,17.58
2019-05-26T23:20:19.242Z,17.52
2019-05-26T23:22:48.446Z,17.50
2019-05-26T23:25:57.098Z,17.50
2019-05-26T23:28:26.290Z,17.46
2019-05-26T23:30:55.540Z,17.45
2019-05-26T23:33:24.741Z,17.32
2019-05-26T23:35:53.994Z,17.30
2019-05-26T23:38:23.498Z,17.36
2019-05-26T23:40:52.751Z,17.42
2019-05-26T23:43:21.960Z,17.41
2019-05-26T23:45:51.499Z,17.39
2019-05-26T23:48:21.363Z,17.37
2019-05-26T23:50:50.918Z,17.35
2019-05-26T23:53:20.115Z,17.29
2019-05-26T23:55:49.364Z,17.29
2019-05-26T23:58:18.557Z,17.27
